createdAt,value
2023-04-18T00:00:51.882Z,103094.88
2023-04-18T00:03:53.420Z,103092.31
2023-04-18T00:06:55.010Z,103085.47
2023-04-18T00:09:56.486Z,103088.84
2023-04-18T00:12:57.874Z,103088.84
2023-04-18T00:15:59.415Z,103091.41
2023-04-18T00:19:00.827Z,103092.25
2023-04-18T00:22:02.291Z,103089.69
2023-04-18T00:25:03.927Z,103093.06
2023-04-18T00:28:05.485Z,103087.06
2023-04-18T00:31:07.850Z,103090.47
2023-04-18T00:34:09.343Z,103096.47
2023-04-18T00:37:10.757Z,103099.88
2023-04-18T00:40:12.276Z,103096.47
2023-04-18T00:43:14.308Z,103097.34
2023-04-18T00:46:15.824Z,103089.69
2023-04-18T00:49:17.276Z,103090.53
2023-04-18T00:52:19.334Z,103091.38
2023-04-18T00:55:21.637Z,103096.50
2023-04-18T00:58:24.145Z,103085.41
2023-04-18T01:01:26.149Z,103092.19
2023-04-18T01:04:27.829Z,103089.69
2023-04-18T01:07:35.635Z,103086.22
2023-04-18T01:10:37.274Z,103084.50
2023-04-18T01:13:38.710Z,103091.34
2023-04-18T01:16:40.175Z,103080.22
2023-04-18T01:19:41.683Z,103092.19
2023-04-18T01:22:43.089Z,103087.06
2023-04-18T01:25:45.370Z,103090.44
2023-04-18T01:28:46.802Z,103089.56
2023-04-18T01:31:48.351Z,103094.69
2023-04-18T01:34:50.314Z,103091.25
2023-04-18T01:37:51.791Z,103098.91
2023-04-18T01:40:53.211Z,103098.91
2023-04-18T01:43:56.673Z,103091.19
2023-04-18T01:46:58.242Z,103096.31
2023-04-18T01:49:59.790Z,103095.41
2023-04-18T01:53:03.352Z,103101.38
2023-04-18T01:56:05.116Z,103094.56
2023-04-18T01:59:06.588Z,103084.25
2023-04-18T02:02:08.153Z,103076.56
2023-04-18T02:05:10.402Z,103082.50
2023-04-18T02:08:14.114Z,103080.78
2023-04-18T02:11:15.588Z,103081.59
2023-04-18T02:14:17.017Z,103072.19
2023-04-18T02:17:22.895Z,103075.59
2023-04-18T02:20:24.380Z,103072.16
2023-04-18T02:23:25.860Z,103072.16
2023-04-18T02:26:30.174Z,103068.69
2023-04-18T02:29:32.417Z,103072.97
2023-04-18T02:32:33.993Z,103069.53
2023-04-18T02:35:37.352Z,103074.63
2023-04-18T02:38:38.812Z,103071.16
2023-04-18T02:41:40.240Z,103073.69
2023-04-18T02:44:42.016Z,103079.66
2023-04-18T02:47:54.577Z,103077.91
2023-04-18T02:51:04.359Z,103082.19
2023-04-18T02:54:07.940Z,103071.06
2023-04-18T02:57:23.993Z,103082.97
2023-04-18T03:00:34.262Z,103086.28
2023-04-18T03:03:47.730Z,103085.44
2023-04-18T03:07:02.050Z,103085.41
2023-04-18T03:10:07.334Z,103088.78
2023-04-18T03:13:11.267Z,103087.06
2023-04-18T03:16:13.719Z,103097.28
2023-04-18T03:19:16.885Z,103088.66
2023-04-18T03:22:18.602Z,103086.91
2023-04-18T03:25:31.189Z,103089.50
2023-04-18T03:28:33.826Z,103098.88
2023-04-18T03:31:36.077Z,103101.41
2023-04-18T03:34:37.516Z,103096.22
2023-04-18T03:37:41.637Z,103100.50
2023-04-18T03:40:44.972Z,103111.53
2023-04-18T03:43:54.058Z,103116.63
2023-04-18T03:46:55.560Z,103118.31
2023-04-18T03:49:58.481Z,103125.13
2023-04-18T03:53:01.360Z,103126.75
2023-04-18T03:56:07.014Z,103125.03
2023-04-18T03:59:34.338Z,103127.56
2023-04-18T04:02:36.043Z,103130.09
2023-04-18T04:05:37.626Z,103134.31
2023-04-18T04:08:39.494Z,103138.56
2023-04-18T04:11:43.383Z,103137.72
2023-04-18T04:14:47.629Z,103137.69
2023-04-18T04:17:50.679Z,103139.38
2023-04-18T04:20:52.869Z,103141.09
2023-04-18T04:24:07.170Z,103143.63
2023-04-18T04:27:15.716Z,103141.91
2023-04-18T04:30:17.482Z,103147.88
2023-04-18T04:33:20.972Z,103142.81
2023-04-18T04:36:23.662Z,103148.78
2023-04-18T04:39:27.180Z,103144.53
2023-04-18T04:42:41.269Z,103147.97
2023-04-18T04:45:50.052Z,103148.00
2023-04-18T04:48:56.957Z,103148.03
2023-04-18T04:52:01.931Z,103152.31
2023-04-18T04:55:03.757Z,103156.44
2023-04-18T04:58:05.255Z,103162.53
2023-04-18T05:01:26.952Z,103160.00
2023-04-18T05:04:29.043Z,103161.78
2023-04-18T05:07:30.633Z,103164.41
2023-04-18T05:10:32.107Z,103167.91
2023-04-18T05:13:33.495Z,103169.66
2023-04-18T05:16:34.986Z,103164.59
2023-04-18T05:19:36.418Z,103168.91
2023-04-18T05:22:37.863Z,103166.41
2023-04-18T05:25:39.490Z,103177.56
2023-04-18T05:28:41.000Z,103161.41
2023-04-18T05:31:42.452Z,103161.50
2023-04-18T05:34:43.975Z,103163.25
2023-04-18T05:37:45.397Z,103174.41
2023-04-18T05:40:46.827Z,103167.63
2023-04-18T05:44:01.746Z,103177.94
2023-04-18T05:47:08.955Z,103167.16
2023-04-18T05:50:10.553Z,103165.31
2023-04-18T05:53:12.048Z,103173.06
2023-04-18T05:56:13.466Z,103165.41
2023-04-18T05:59:14.929Z,103174.41
2023-04-18T06:02:16.462Z,103172.81
2023-04-18T06:05:18.307Z,103176.34
2023-04-18T06:08:19.983Z,103173.78
2023-04-18T06:11:21.489Z,103179.47
2023-04-18T06:14:23.000Z,103169.25
2023-04-18T06:17:24.613Z,103174.50
2023-04-18T06:20:26.016Z,103178.41
2023-04-18T06:23:27.459Z,103171.63
2023-04-18T06:26:28.880Z,103181.47
2023-04-18T06:29:30.539Z,103179.47
2023-04-18T06:32:32.013Z,103180.50
2023-04-18T06:35:33.493Z,103180.50
2023-04-18T06:38:34.941Z,103196.47
2023-04-18T06:41:36.308Z,103185.16
2023-04-18T06:44:37.694Z,103191.50
2023-04-18T06:47:40.142Z,103186.25
2023-04-18T06:50:41.610Z,103191.06
2023-04-18T06:53:42.991Z,103195.66
2023-04-18T06:56:44.396Z,103192.69
2023-04-18T06:59:45.792Z,103199.81
2023-04-18T07:02:47.873Z,103198.84
2023-04-18T07:05:49.597Z,103196.72
2023-04-18T07:08:52.730Z,103200.56
2023-04-18T07:11:55.364Z,103191.34
2023-04-18T07:14:56.842Z,103197.44
2023-04-18T07:17:58.286Z,103195.69
2023-04-18T07:20:59.718Z,103199.19
2023-04-18T07:24:01.097Z,103186.31
2023-04-18T07:27:02.936Z,103187.03
2023-04-18T07:30:04.933Z,103183.44
2023-04-18T07:33:06.429Z,103183.78
2023-04-18T07:36:08.129Z,103196.66
2023-04-18T07:39:10.890Z,103192.84
2023-04-18T07:42:12.321Z,103199.84
2023-04-18T07:45:13.694Z,103206.66
2023-04-18T07:48:15.174Z,103206.44
2023-04-18T07:51:19.656Z,103207.38
2023-04-18T07:54:21.100Z,103211.50
2023-04-18T07:57:22.534Z,103210.31
2023-04-18T08:00:24.401Z,103203.75
2023-04-18T08:03:25.884Z,103206.13
2023-04-18T08:06:28.441Z,103204.03
2023-04-18T08:09:29.860Z,103217.25
2023-04-18T08:12:31.382Z,103217.81
2023-04-18T08:15:32.985Z,103207.41
2023-04-18T08:18:35.727Z,103215.97
2023-04-18T08:21:37.139Z,103205.97
2023-04-18T08:24:39.221Z,103209.13
2023-04-18T08:27:40.664Z,103194.41
2023-04-18T08:30:42.547Z,103199.88
2023-04-18T08:33:44.009Z,103194.78
2023-04-18T08:36:45.381Z,103199.38
2023-04-18T08:39:46.804Z,103196.97
2023-04-18T08:42:49.344Z,103197.44
2023-04-18T08:45:50.851Z,103199.41
2023-04-18T08:48:52.359Z,103197.75
2023-04-18T08:51:53.788Z,103189.56
2023-04-18T08:54:55.311Z,103189.63
2023-04-18T08:57:56.759Z,103186.25
2023-04-18T09:00:58.282Z,103194.16
2023-04-18T09:03:59.729Z,103195.34
2023-04-18T09:07:02.725Z,103200.72
2023-04-18T09:10:04.460Z,103212.06
2023-04-18T09:13:05.907Z,103209.34
2023-04-18T09:16:07.314Z,103205.25
2023-04-18T09:19:14.614Z,103209.94
2023-04-18T09:22:17.181Z,103213.34
2023-04-18T09:25:28.644Z,103212.44
2023-04-18T09:28:33.756Z,103215.75
2023-04-18T09:31:35.316Z,103192.06
2023-04-18T09:34:41.746Z,103193.34
2023-04-18T09:37:50.251Z,103201.03
2023-04-18T09:41:07.962Z,103208.16
2023-04-18T09:44:14.439Z,103206.16
2023-04-18T09:47:16.589Z,103212.88
2023-04-18T09:50:18.567Z,103205.28
2023-04-18T09:53:21.081Z,103208.59
2023-04-18T09:56:28.189Z,103207.41
2023-04-18T09:59:32.445Z,103201.78
2023-04-18T10:02:44.703Z,103199.03
2023-04-18T10:05:47.604Z,103194.00
2023-04-18T10:08:51.998Z,103193.50
2023-04-18T10:11:54.563Z,103201.94
2023-04-18T10:14:56.270Z,103203.41
2023-04-18T10:18:05.071Z,103198.91
2023-04-18T10:21:09.035Z,103203.50
2023-04-18T10:24:45.410Z,103190.13
2023-04-18T10:27:57.937Z,103193.00
2023-04-18T10:31:03.650Z,103197.94
2023-04-18T10:34:07.172Z,103203.03
2023-04-18T10:37:08.650Z,103207.56
2023-04-18T10:40:10.326Z,103198.81
2023-04-18T10:43:11.732Z,103197.00
2023-04-18T10:46:27.776Z,103195.16
2023-04-18T10:49:32.612Z,103191.84
2023-04-18T10:52:34.529Z,103195.56
2023-04-18T10:55:36.210Z,103194.66
2023-04-18T10:58:40.953Z,103204.22
2023-04-18T11:01:46.237Z,103196.59
2023-04-18T11:04:56.201Z,103194.88
2023-04-18T11:07:57.671Z,103193.00
2023-04-18T11:11:00.140Z,103196.56
2023-04-18T11:14:02.379Z,103200.41
2023-04-18T11:17:23.243Z,103202.88
2023-04-18T11:20:24.904Z,103195.78
2023-04-18T11:23:27.148Z,103185.63
2023-04-18T11:26:28.640Z,103185.13
2023-04-18T11:29:30.269Z,103183.34
2023-04-18T11:32:34.385Z,103183.31
2023-04-18T11:35:44.561Z,103184.41
2023-04-18T11:38:46.044Z,103190.56
2023-04-18T11:41:50.010Z,103188.75
2023-04-18T11:44:51.446Z,103187.59
2023-04-18T11:47:56.451Z,103190.25
2023-04-18T11:50:57.874Z,103186.13
2023-04-18T11:53:59.498Z,103187.56
2023-04-18T11:57:00.929Z,103192.16
2023-04-18T12:00:02.509Z,103197.41
2023-04-18T12:03:17.357Z,103189.97
2023-04-18T12:06:19.031Z,103196.91
2023-04-18T12:09:22.299Z,103186.25
2023-04-18T12:12:23.792Z,103186.91
2023-04-18T12:15:29.585Z,103188.25
2023-04-18T12:18:30.962Z,103186.03
2023-04-18T12:21:32.389Z,103188.06
2023-04-18T12:24:33.824Z,103184.72
2023-04-18T12:28:01.367Z,103181.38
2023-04-18T12:31:03.114Z,103192.91
2023-04-18T12:34:04.592Z,103191.06
2023-04-18T12:37:06.060Z,103180.50
2023-04-18T12:40:07.964Z,103173.94
2023-04-18T12:43:09.574Z,103169.22
2023-04-18T12:46:11.319Z,103172.31
2023-04-18T12:49:12.774Z,103169.91
2023-04-18T12:52:14.168Z,103175.84
2023-04-18T12:55:15.624Z,103160.84
2023-04-18T12:58:17.728Z,103160.31
2023-04-18T13:01:19.219Z,103175.50
2023-04-18T13:04:21.171Z,103168.91
2023-04-18T13:07:22.835Z,103179.69
2023-04-18T13:10:25.677Z,103164.78
2023-04-18T13:13:27.104Z,103153.59
2023-04-18T13:16:28.577Z,103157.28
2023-04-18T13:19:30.164Z,103149.34
2023-04-18T13:22:31.569Z,103153.09
2023-04-18T13:25:33.041Z,103146.72
2023-04-18T13:28:34.414Z,103149.84
2023-04-18T13:31:35.810Z,103154.09
2023-04-18T13:34:41.151Z,103147.44
2023-04-18T13:37:42.886Z,103161.97
2023-04-18T13:40:44.308Z,103143.72
2023-04-18T13:43:45.689Z,103139.47
2023-04-18T13:46:47.102Z,103153.72
2023-04-18T13:49:48.482Z,103135.72
2023-04-18T13:52:49.915Z,103146.50
2023-04-18T13:55:51.346Z,103130.50
2023-04-18T13:58:52.742Z,103130.38
2023-04-18T14:01:54.913Z,103133.41
2023-04-18T14:04:56.544Z,103125.31
2023-04-18T14:07:58.346Z,103140.88
2023-04-18T14:10:59.746Z,103128.34
2023-04-18T14:14:02.210Z,103137.97
2023-04-18T14:17:03.652Z,103130.22
2023-04-18T14:20:05.839Z,103136.06
2023-04-18T14:23:07.239Z,103129.09
2023-04-18T14:26:08.624Z,103132.84
2023-04-18T14:29:10.075Z,103129.91
2023-04-18T14:32:11.670Z,103139.03
2023-04-18T14:35:13.061Z,103127.50
2023-04-18T14:38:14.503Z,103131.50
2023-04-18T14:41:16.367Z,103122.50
2023-04-18T14:44:17.738Z,103140.25
2023-04-18T14:47:19.210Z,103126.50
2023-04-18T14:50:20.770Z,103122.69
2023-04-18T14:53:22.204Z,103129.94
2023-04-18T14:56:23.840Z,103136.09
2023-04-18T14:59:28.074Z,103126.63
2023-04-18T15:02:29.728Z,103127.44
2023-04-18T15:05:31.345Z,103132.66
2023-04-18T15:08:33.029Z,103132.75
2023-04-18T15:11:34.464Z,103117.03
2023-04-18T15:14:35.894Z,103116.88
2023-04-18T15:17:37.395Z,103131.47
2023-04-18T15:20:38.822Z,103117.06
2023-04-18T15:23:40.241Z,103129.25
2023-04-18T15:26:42.190Z,103124.75
2023-04-18T15:29:43.607Z,103115.03
2023-04-18T15:32:45.123Z,103133.03
2023-04-18T15:35:49.712Z,103132.81
2023-04-18T15:38:51.105Z,103126.72
2023-04-18T15:41:53.190Z,103124.91
2023-04-18T15:44:54.675Z,103132.84
2023-04-18T15:47:56.129Z,103123.75
2023-04-18T15:50:57.584Z,103120.22
2023-04-18T15:53:58.948Z,103115.75
2023-04-18T15:57:00.331Z,103119.53
2023-04-18T16:00:01.814Z,103116.84
2023-04-18T16:03:04.323Z,103117.44
2023-04-18T16:06:05.956Z,103120.50
2023-04-18T16:09:07.377Z,103115.13
2023-04-18T16:12:08.822Z,103125.00
2023-04-18T16:15:10.796Z,103131.34
2023-04-18T16:18:12.308Z,103121.91
2023-04-18T16:21:16.848Z,103121.81
2023-04-18T16:24:18.311Z,103129.50
2023-04-18T16:27:19.761Z,103128.59
2023-04-18T16:30:21.236Z,103123.38
2023-04-18T16:33:22.810Z,103127.78
2023-04-18T16:36:24.440Z,103135.09
2023-04-18T16:39:25.936Z,103133.53
2023-04-18T16:42:27.356Z,103140.50
2023-04-18T16:45:28.789Z,103134.38
2023-04-18T16:48:30.267Z,103131.81
2023-04-18T16:51:31.792Z,103141.41
2023-04-18T16:54:33.226Z,103137.28
2023-04-18T16:57:34.674Z,103145.97
2023-04-18T17:00:38.368Z,103136.56
2023-04-18T17:03:40.278Z,103143.44
2023-04-18T17:06:41.790Z,103154.84
2023-04-18T17:09:43.193Z,103142.13
2023-04-18T17:12:44.797Z,103145.66
2023-04-18T17:15:46.449Z,103143.94
2023-04-18T17:18:47.878Z,103150.97
2023-04-18T17:21:49.436Z,103149.34
2023-04-18T17:24:50.904Z,103146.78
2023-04-18T17:27:52.342Z,103161.50
2023-04-18T17:30:53.757Z,103154.72
2023-04-18T17:33:55.188Z,103161.66
2023-04-18T17:36:56.580Z,103167.75
2023-04-18T17:39:58.019Z,103165.31
2023-04-18T17:42:59.450Z,103155.06
2023-04-18T17:46:00.889Z,103162.88
2023-04-18T17:49:02.317Z,103158.72
2023-04-18T17:52:03.982Z,103167.31
2023-04-18T17:55:05.946Z,103172.53
2023-04-18T17:58:07.370Z,103177.88
2023-04-18T18:01:18.996Z,103175.38
2023-04-18T18:04:20.680Z,103170.34
2023-04-18T18:07:22.277Z,103167.00
2023-04-18T18:10:23.824Z,103174.81
2023-04-18T18:13:25.613Z,103172.34
2023-04-18T18:16:27.013Z,103173.28
2023-04-18T18:19:28.442Z,103178.53
2023-04-18T18:22:29.813Z,103189.84
2023-04-18T18:25:31.267Z,103180.44
2023-04-18T18:28:33.060Z,103192.56
2023-04-18T18:31:35.453Z,103194.28
2023-04-18T18:34:36.885Z,103201.25
2023-04-18T18:37:38.268Z,103197.03
2023-04-18T18:40:39.708Z,103203.03
2023-04-18T18:43:41.077Z,103197.94
2023-04-18T18:46:43.366Z,103205.69
2023-04-18T18:49:44.949Z,103216.06
2023-04-18T18:52:46.410Z,103215.25
2023-04-18T18:55:47.818Z,103216.13
2023-04-18T18:58:49.215Z,103212.78
2023-04-18T19:01:50.658Z,103223.13
2023-04-18T19:04:52.346Z,103225.75
2023-04-18T19:07:53.934Z,103216.34
2023-04-18T19:10:55.337Z,103231.78
2023-04-18T19:13:56.758Z,103235.25
2023-04-18T19:16:58.209Z,103248.19
2023-04-18T19:19:59.652Z,103246.50
2023-04-18T19:23:01.057Z,103241.34
2023-04-18T19:26:02.805Z,103245.66
2023-04-18T19:29:06.721Z,103248.25
2023-04-18T19:32:08.394Z,103236.25
2023-04-18T19:35:09.977Z,103244.00
2023-04-18T19:38:11.351Z,103246.59
2023-04-18T19:41:12.756Z,103249.19
2023-04-18T19:44:14.134Z,103250.88
2023-04-18T19:47:15.653Z,103250.03
2023-04-18T19:50:17.282Z,103242.31
2023-04-18T19:53:18.729Z,103240.63
2023-04-18T19:56:20.235Z,103251.78
2023-04-18T19:59:21.664Z,103250.09
2023-04-18T20:02:23.115Z,103253.53
2023-04-18T20:05:24.792Z,103254.41
2023-04-18T20:08:26.385Z,103247.53
2023-04-18T20:11:27.849Z,103244.97
2023-04-18T20:14:29.373Z,103249.25
2023-04-18T20:17:30.880Z,103253.56
2023-04-18T20:20:32.649Z,103251.88
2023-04-18T20:23:37.531Z,103254.41
2023-04-18T20:26:38.988Z,103252.72
2023-04-18T20:29:40.426Z,103260.44
2023-04-18T20:32:42.149Z,103258.72
2023-04-18T20:35:44.004Z,103254.44
2023-04-18T20:38:45.469Z,103258.72
2023-04-18T20:41:50.068Z,103258.72
2023-04-18T20:44:51.454Z,103263.00
2023-04-18T20:47:52.927Z,103254.47
2023-04-18T20:50:54.357Z,103262.19
2023-04-18T20:53:55.816Z,103259.59
2023-04-18T20:56:57.225Z,103265.59
2023-04-18T20:59:58.687Z,103266.44
2023-04-18T21:03:00.526Z,103269.88
2023-04-18T21:06:02.127Z,103270.72
2023-04-18T21:09:03.675Z,103270.72
2023-04-18T21:12:05.716Z,103276.72
2023-04-18T21:15:07.785Z,103286.97
2023-04-18T21:18:09.468Z,103283.53
2023-04-18T21:21:11.056Z,103298.94
2023-04-18T21:24:12.681Z,103289.53
2023-04-18T21:27:14.324Z,103286.97
2023-04-18T21:30:15.843Z,103289.50
2023-04-18T21:33:17.371Z,103290.38
2023-04-18T21:36:18.914Z,103290.34
2023-04-18T21:39:20.397Z,103299.72
2023-04-18T21:42:21.918Z,103292.88
2023-04-18T21:45:23.459Z,103303.09
2023-04-18T21:48:25.011Z,103302.22
2023-04-18T21:51:26.489Z,103296.22
2023-04-18T21:54:27.999Z,103300.47
2023-04-18T21:57:29.476Z,103297.06
2023-04-18T22:00:30.973Z,103296.16
2023-04-18T22:03:33.030Z,103291.88
2023-04-18T22:06:34.599Z,103294.44
2023-04-18T22:09:36.077Z,103297.84
2023-04-18T22:12:37.552Z,103296.09
2023-04-18T22:15:39.022Z,103294.38
2023-04-18T22:18:40.551Z,103284.94
2023-04-18T22:21:42.115Z,103284.88
2023-04-18T22:24:45.478Z,103286.59
2023-04-18T22:27:48.365Z,103287.44
2023-04-18T22:30:50.747Z,103292.56
2023-04-18T22:33:52.213Z,103286.53
2023-04-18T22:36:53.758Z,103295.88
2023-04-18T22:39:55.294Z,103288.16
2023-04-18T22:42:56.732Z,103288.97
2023-04-18T22:45:58.269Z,103281.25
2023-04-18T22:48:59.846Z,103286.31
2023-04-18T22:52:01.384Z,103296.53
2023-04-18T22:55:03.271Z,103299.94
2023-04-18T22:58:04.794Z,103294.78
2023-04-18T23:01:06.309Z,103305.00
2023-04-18T23:04:08.382Z,103299.03
2023-04-18T23:07:09.970Z,103303.28
2023-04-18T23:10:11.711Z,103305.81
2023-04-18T23:13:13.645Z,103316.88
2023-04-18T23:16:15.419Z,103301.50
2023-04-18T23:19:16.991Z,103304.84
2023-04-18T23:22:18.456Z,103294.56
2023-04-18T23:25:20.101Z,103294.56
2023-04-18T23:28:21.665Z,103291.16
2023-04-18T23:31:23.257Z,103297.94
2023-04-18T23:34:24.751Z,103295.38
2023-04-18T23:37:26.264Z,103295.34
2023-04-18T23:40:27.749Z,103295.38
2023-04-18T23:43:29.216Z,103303.06
2023-04-18T23:46:30.713Z,103294.53
2023-04-18T23:49:32.246Z,103291.97
2023-04-18T23:52:33.836Z,103285.94
2023-04-18T23:55:35.309Z,103283.38
2023-04-18T23:58:36.727Z,103284.25
